sensor_id;sensor_type;location;lat;lon;timestamp;temperature;humidity
12604;DHT22;6367;52.508;13.284;2022-11-15T12:00:43;16.20;99.60
12604;DHT22;6367;52.508;13.284;2022-11-15T12:06:41;16.00;99.50
12604;DHT22;6367;52.508;13.284;2022-11-15T12:12:21;15.90;99.60
12604;DHT22;6367;52.508;13.284;2022-11-15T12:17:27;15.90;99.70
12604;DHT22;6367;52.508;13.284;2022-11-15T12:20:19;15.80;99.90
12604;DHT22;6367;52.508;13.284;2022-11-15T12:25:43;15.80;99.90
12604;DHT22;6367;52.508;13.284;2022-11-15T12:33:35;15.90;99.90
12604;DHT22;6367;52.508;13.284;2022-11-15T12:36:12;15.80;99.90
12604;DHT22;6367;52.508;13.284;2022-11-15T12:39:05;15.80;99.90
12604;DHT22;6367;52.508;13.284;2022-11-15T12:44:12;15.80;99.90
12604;DHT22;6367;52.508;13.284;2022-11-15T12:49:41;15.80;99.90
12604;DHT22;6367;52.508;13.284;2022-11-15T12:59:54;15.90;99.90
12604;DHT22;6367;52.508;13.284;2022-11-15T13:02:31;15.90;99.90
12604;DHT22;6367;52.508;13.284;2022-11-15T13:17:46;16.00;99.90
12604;DHT22;6367;52.508;13.284;2022-11-15T13:30:40;16.10;99.90
12604;DHT22;6367;52.508;13.284;2022-11-15T13:33:25;16.20;99.80
12604;DHT22;6367;52.508;13.284;2022-11-15T13:35:56;16.30;99.80
12604;DHT22;6367;52.508;13.284;2022-11-15T13:38:34;16.30;99.70
12604;DHT22;6367;52.508;13.284;2022-11-15T13:43:42;16.40;99.60
12604;DHT22;6367;52.508;13.284;2022-11-15T13:46:21;16.30;99.60
12604;DHT22;6367;52.508;13.284;2022-11-15T13:54:24;16.30;99.90
12604;DHT22;6367;52.508;13.284;2022-11-15T13:57:09;16.20;99.90
12604;DHT22;6367;52.508;13.284;2022-11-15T14:00:00;16.20;99.90
12604;DHT22;6367;52.508;13.284;2022-11-15T14:02:31;16.20;99.90
12604;DHT22;6367;52.508;13.284;2022-11-15T14:05:01;16.20;99.90
12604;DHT22;6367;52.508;13.284;2022-11-15T14:07:28;16.40;99.90
12604;DHT22;6367;52.508;13.284;2022-11-15T14:09:55;16.30;99.80
12604;DHT22;6367;52.508;13.284;2022-11-15T14:12:32;16.20;99.90
12604;DHT22;6367;52.508;13.284;2022-11-15T14:15:01;16.20;99.90
12604;DHT22;6367;52.508;13.284;2022-11-15T14:19:57;16.20;99.90
12604;DHT22;6367;52.508;13.284;2022-11-15T14:22:24;16.10;99.90
12604;DHT22;6367;52.508;13.284;2022-11-15T14:25:16;16.20;99.90
12604;DHT22;6367;52.508;13.284;2022-11-15T14:28:06;16.20;99.90
12604;DHT22;6367;52.508;13.284;2022-11-15T14:30:30;16.10;99.90
12604;DHT22;6367;52.508;13.284;2022-11-15T14:32:55;16.20;99.90
12604;DHT22;6367;52.508;13.284;2022-11-15T14:35:22;16.30;99.90
12604;DHT22;6367;52.508;13.284;2022-11-15T14:37:48;16.10;99.90
12604;DHT22;6367;52.508;13.284;2022-11-15T14:40:19;16.00;99.90
12604;DHT22;6367;52.508;13.284;2022-11-15T14:42:46;15.90;99.90
12604;DHT22;6367;52.508;13.284;2022-11-15T14:45:15;16.00;99.90
12604;DHT22;6367;52.508;13.284;2022-11-15T14:47:41;16.00;99.90
12604;DHT22;6367;52.508;13.284;2022-11-15T14:50:14;15.90;99.90
12604;DHT22;6367;52.508;13.284;2022-11-15T14:52:41;15.90;99.90
12604;DHT22;6367;52.508;13.284;2022-11-15T14:55:20;15.90;99.90
12604;DHT22;6367;52.508;13.284;2022-11-15T14:57:47;15.80;99.90
12604;DHT22;6367;52.508;13.284;2022-11-15T15:00:13;15.80;99.90
12604;DHT22;6367;52.508;13.284;2022-11-15T15:02:41;15.80;99.90
12604;DHT22;6367;52.508;13.284;2022-11-15T15:05:15;15.80;99.90
12604;DHT22;6367;52.508;13.284;2022-11-15T15:07:41;15.70;99.90
12604;DHT22;6367;52.508;13.284;2022-11-15T15:10:07;15.60;99.90
12604;DHT22;6367;52.508;13.284;2022-11-15T15:12:33;15.70;99.90
12604;DHT22;6367;52.508;13.284;2022-11-15T15:14:58;15.60;99.90
12604;DHT22;6367;52.508;13.284;2022-11-15T15:17:24;15.60;99.90
12604;DHT22;6367;52.508;13.284;2022-11-15T15:19:50;15.50;99.90
12604;DHT22;6367;52.508;13.284;2022-11-15T15:22:18;15.50;99.90
12604;DHT22;6367;52.508;13.284;2022-11-15T15:24:45;15.50;99.90
12604;DHT22;6367;52.508;13.284;2022-11-15T15:27:11;15.50;99.90
12604;DHT22;6367;52.508;13.284;2022-11-15T15:29:38;14.80;99.90
12604;DHT22;6367;52.508;13.284;2022-11-15T15:32:04;15.40;99.90
12604;DHT22;6367;52.508;13.284;2022-11-15T15:34:30;15.40;99.90
12604;DHT22;6367;52.508;13.284;2022-11-15T15:39:33;15.30;99.90
12604;DHT22;6367;52.508;13.284;2022-11-15T15:41:59;15.30;99.90
12604;DHT22;6367;52.508;13.284;2022-11-15T15:44:25;15.30;99.90
12604;DHT22;6367;52.508;13.284;2022-11-15T15:46:50;15.30;99.90
12604;DHT22;6367;52.508;13.284;2022-11-15T15:49:16;15.20;99.90
12604;DHT22;6367;52.508;13.284;2022-11-15T15:51:42;15.10;99.90
12604;DHT22;6367;52.508;13.284;2022-11-15T15:54:07;15.00;99.90
12604;DHT22;6367;52.508;13.284;2022-11-15T15:56:33;15.00;99.90
12604;DHT22;6367;52.508;13.284;2022-11-15T15:58:58;15.00;99.90
12604;DHT22;6367;52.508;13.284;2022-11-15T16:01:24;14.90;99.90
12604;DHT22;6367;52.508;13.284;2022-11-15T16:03:50;15.00;99.90
12604;DHT22;6367;52.508;13.284;2022-11-15T16:06:45;14.90;99.90
12604;DHT22;6367;52.508;13.284;2022-11-15T16:09:13;15.00;99.90
12604;DHT22;6367;52.508;13.284;2022-11-15T16:11:40;14.80;99.90
12604;DHT22;6367;52.508;13.284;2022-11-15T16:14:07;14.80;99.90
12604;DHT22;6367;52.508;13.284;2022-11-15T16:16:34;14.80;99.90
12604;DHT22;6367;52.508;13.284;2022-11-15T16:18:59;14.60;99.90
12604;DHT22;6367;52.508;13.284;2022-11-15T16:21:26;14.60;99.90
12604;DHT22;6367;52.508;13.284;2022-11-15T16:23:52;14.50;99.90
12604;DHT22;6367;52.508;13.284;2022-11-15T16:26:21;14.60;99.90
12604;DHT22;6367;52.508;13.284;2022-11-15T16:28:49;14.60;99.90
12604;DHT22;6367;52.508;13.284;2022-11-15T16:31:15;14.60;99.90
12604;DHT22;6367;52.508;13.284;2022-11-15T16:33:44;14.80;99.90
12604;DHT22;6367;52.508;13.284;2022-11-15T16:38:45;14.60;99.90
12604;DHT22;6367;52.508;13.284;2022-11-15T16:41:11;14.50;99.90
12604;DHT22;6367;52.508;13.284;2022-11-15T16:43:36;14.50;99.90
12604;DHT22;6367;52.508;13.284;2022-11-15T16:46:08;14.40;99.90
12604;DHT22;6367;52.508;13.284;2022-11-15T16:48:37;14.40;99.90
12604;DHT22;6367;52.508;13.284;2022-11-15T16:51:04;14.30;99.90
12604;DHT22;6367;52.508;13.284;2022-11-15T16:53:30;14.30;99.90
12604;DHT22;6367;52.508;13.284;2022-11-15T16:55:56;14.20;99.90
12604;DHT22;6367;52.508;13.284;2022-11-15T16:58:22;14.10;99.90
12604;DHT22;6367;52.508;13.284;2022-11-15T17:00:55;14.10;99.90
12604;DHT22;6367;52.508;13.284;2022-11-15T17:03:22;14.20;99.90
12604;DHT22;6367;52.508;13.284;2022-11-15T17:05:48;14.10;99.90
12604;DHT22;6367;52.508;13.284;2022-11-15T17:08:15;14.10;99.90
12604;DHT22;6367;52.508;13.284;2022-11-15T17:10:40;14.00;99.90
12604;DHT22;6367;52.508;13.284;2022-11-15T17:13:10;14.00;99.90
12604;DHT22;6367;52.508;13.284;2022-11-15T17:15:37;13.90;99.90
12604;DHT22;6367;52.508;13.284;2022-11-15T17:18:02;13.90;99.90
12604;DHT22;6367;52.508;13.284;2022-11-15T17:20:28;13.90;99.90
12604;DHT22;6367;52.508;13.284;2022-11-15T17:22:55;13.80;99.90
12604;DHT22;6367;52.508;13.284;2022-11-15T17:25:20;13.80;99.90
12604;DHT22;6367;52.508;13.284;2022-11-15T17:27:47;13.90;99.90
12604;DHT22;6367;52.508;13.284;2022-11-15T17:30:13;13.90;99.90
12604;DHT22;6367;52.508;13.284;2022-11-15T17:32:44;13.80;99.90
12604;DHT22;6367;52.508;13.284;2022-11-15T17:35:12;13.70;99.90
12604;DHT22;6367;52.508;13.284;2022-11-15T17:37:38;13.80;99.90
12604;DHT22;6367;52.508;13.284;2022-11-15T17:40:04;13.70;99.90
12604;DHT22;6367;52.508;13.284;2022-11-15T17:42:29;13.90;99.90
12604;DHT22;6367;52.508;13.284;2022-11-15T17:44:56;13.80;99.90
12604;DHT22;6367;52.508;13.284;2022-11-15T17:47:22;13.70;99.90
12604;DHT22;6367;52.508;13.284;2022-11-15T17:49:47;13.60;99.90
12604;DHT22;6367;52.508;13.284;2022-11-15T17:52:13;13.50;99.90
12604;DHT22;6367;52.508;13.284;2022-11-15T17:54:38;13.30;99.90
12604;DHT22;6367;52.508;13.284;2022-11-15T17:57:04;13.30;99.90
12604;DHT22;6367;52.508;13.284;2022-11-15T17:59:29;13.30;99.90
12604;DHT22;6367;52.508;13.284;2022-11-15T18:01:55;13.40;99.90
12604;DHT22;6367;52.508;13.284;2022-11-15T18:04:21;13.40;99.90
12604;DHT22;6367;52.508;13.284;2022-11-15T18:06:53;13.10;99.90
12604;DHT22;6367;52.508;13.284;2022-11-15T18:09:19;13.00;99.90
12604;DHT22;6367;52.508;13.284;2022-11-15T18:11:46;13.00;99.90
12604;DHT22;6367;52.508;13.284;2022-11-15T18:14:17;12.70;99.90
12604;DHT22;6367;52.508;13.284;2022-11-15T18:16:43;12.70;99.90
12604;DHT22;6367;52.508;13.284;2022-11-15T18:19:09;12.70;99.90
12604;DHT22;6367;52.508;13.284;2022-11-15T18:21:39;12.80;99.90
12604;DHT22;6367;52.508;13.284;2022-11-15T18:24:22;12.90;99.90
12604;DHT22;6367;52.508;13.284;2022-11-15T18:26:48;12.80;99.90
12604;DHT22;6367;52.508;13.284;2022-11-15T18:29:13;12.90;99.90
12604;DHT22;6367;52.508;13.284;2022-11-15T18:31:39;12.80;99.90
12604;DHT22;6367;52.508;13.284;2022-11-15T18:34:05;12.80;99.90
12604;DHT22;6367;52.508;13.284;2022-11-15T18:36:31;12.80;99.90
12604;DHT22;6367;52.508;13.284;2022-11-15T18:38:59;12.70;99.90
12604;DHT22;6367;52.508;13.284;2022-11-15T18:41:26;12.70;99.90
12604;DHT22;6367;52.508;13.284;2022-11-15T18:43:54;12.70;99.90
12604;DHT22;6367;52.508;13.284;2022-11-15T18:46:22;12.60;99.90
12604;DHT22;6367;52.508;13.284;2022-11-15T18:48:49;12.60;99.90
12604;DHT22;6367;52.508;13.284;2022-11-15T18:51:20;12.60;99.90
12604;DHT22;6367;52.508;13.284;2022-11-15T18:53:47;12.50;99.90
12604;DHT22;6367;52.508;13.284;2022-11-15T18:56:16;12.50;99.90
12604;DHT22;6367;52.508;13.284;2022-11-15T18:58:47;12.50;99.90
12604;DHT22;6367;52.508;13.284;2022-11-15T19:01:15;12.50;99.90
12604;DHT22;6367;52.508;13.284;2022-11-15T19:03:43;12.40;99.90
12604;DHT22;6367;52.508;13.284;2022-11-15T19:06:14;12.40;99.90
12604;DHT22;6367;52.508;13.284;2022-11-15T19:08:41;12.50;99.90
12604;DHT22;6367;52.508;13.284;2022-11-15T19:11:17;12.60;99.90
12604;DHT22;6367;52.508;13.284;2022-11-15T19:13:43;12.30;99.90
12604;DHT22;6367;52.508;13.284;2022-11-15T19:16:12;12.40;99.90
12604;DHT22;6367;52.508;13.284;2022-11-15T19:18:38;12.60;99.90
12604;DHT22;6367;52.508;13.284;2022-11-15T19:21:06;12.50;99.90
12604;DHT22;6367;52.508;13.284;2022-11-15T19:23:33;12.40;99.90
12604;DHT22;6367;52.508;13.284;2022-11-15T19:26:00;12.40;99.90
12604;DHT22;6367;52.508;13.284;2022-11-15T19:28:27;12.40;99.90
12604;DHT22;6367;52.508;13.284;2022-11-15T19:31:01;12.10;99.90
12604;DHT22;6367;52.508;13.284;2022-11-15T19:33:26;12.10;99.90
12604;DHT22;6367;52.508;13.284;2022-11-15T19:36:02;12.40;99.90
12604;DHT22;6367;52.508;13.284;2022-11-15T19:38:30;12.00;99.90
12604;DHT22;6367;52.508;13.284;2022-11-15T19:40:57;11.80;99.90
12604;DHT22;6367;52.508;13.284;2022-11-15T19:43:24;11.90;99.90
12604;DHT22;6367;52.508;13.284;2022-11-15T19:45:57;12.00;99.90
12604;DHT22;6367;52.508;13.284;2022-11-15T19:48:24;11.80;99.90
12604;DHT22;6367;52.508;13.284;2022-11-15T19:50:50;11.80;99.90
12604;DHT22;6367;52.508;13.284;2022-11-15T19:53:16;11.80;99.90
12604;DHT22;6367;52.508;13.284;2022-11-15T19:55:53;11.80;99.90
12604;DHT22;6367;52.508;13.284;2022-11-15T19:58:19;12.10;99.90
12604;DHT22;6367;52.508;13.284;2022-11-15T20:00:45;12.00;99.90
12604;DHT22;6367;52.508;13.284;2022-11-15T20:03:11;12.00;99.90
12604;DHT22;6367;52.508;13.284;2022-11-15T20:05:36;12.00;99.90
12604;DHT22;6367;52.508;13.284;2022-11-15T20:08:02;11.80;99.90
12604;DHT22;6367;52.508;13.284;2022-11-15T20:10:28;11.90;99.90
12604;DHT22;6367;52.508;13.284;2022-11-15T20:12:53;11.60;99.90
12604;DHT22;6367;52.508;13.284;2022-11-15T20:15:19;11.90;99.90
12604;DHT22;6367;52.508;13.284;2022-11-15T20:17:45;11.50;99.90
12604;DHT22;6367;52.508;13.284;2022-11-15T20:20:11;11.50;99.90
12604;DHT22;6367;52.508;13.284;2022-11-15T20:22:37;11.30;99.90
12604;DHT22;6367;52.508;13.284;2022-11-15T20:25:04;11.30;99.90
12604;DHT22;6367;52.508;13.284;2022-11-15T20:27:30;11.20;99.90
12604;DHT22;6367;52.508;13.284;2022-11-15T20:29:56;11.30;99.90
12604;DHT22;6367;52.508;13.284;2022-11-15T20:32:21;11.30;99.90
12604;DHT22;6367;52.508;13.284;2022-11-15T20:34:47;11.30;99.90
12604;DHT22;6367;52.508;13.284;2022-11-15T20:37:13;11.40;99.90
12604;DHT22;6367;52.508;13.284;2022-11-15T20:39:38;11.30;99.90
12604;DHT22;6367;52.508;13.284;2022-11-15T20:42:04;11.20;99.90
12604;DHT22;6367;52.508;13.284;2022-11-15T20:44:30;11.20;99.90
12604;DHT22;6367;52.508;13.284;2022-11-15T20:46:55;11.20;99.90
12604;DHT22;6367;52.508;13.284;2022-11-15T20:49:21;10.80;99.90
12604;DHT22;6367;52.508;13.284;2022-11-15T20:51:47;11.80;99.90
12604;DHT22;6367;52.508;13.284;2022-11-15T20:54:13;11.10;99.90
12604;DHT22;6367;52.508;13.284;2022-11-15T20:56:38;11.10;99.90
12604;DHT22;6367;52.508;13.284;2022-11-15T20:59:04;11.10;99.90
12604;DHT22;6367;52.508;13.284;2022-11-15T21:01:30;10.90;99.90
12604;DHT22;6367;52.508;13.284;2022-11-15T21:03:56;10.80;99.90
12604;DHT22;6367;52.508;13.284;2022-11-15T21:06:23;10.80;99.90
12604;DHT22;6367;52.508;13.284;2022-11-15T21:08:50;10.60;99.90
12604;DHT22;6367;52.508;13.284;2022-11-15T21:11:35;10.50;99.90
12604;DHT22;6367;52.508;13.284;2022-11-15T21:14:20;10.30;99.90
12604;DHT22;6367;52.508;13.284;2022-11-15T21:16:45;10.20;99.90
12604;DHT22;6367;52.508;13.284;2022-11-15T21:19:11;10.20;99.90
12604;DHT22;6367;52.508;13.284;2022-11-15T21:21:37;10.20;99.90
12604;DHT22;6367;52.508;13.284;2022-11-15T21:24:04;10.10;99.90
12604;DHT22;6367;52.508;13.284;2022-11-15T21:26:31;10.20;99.90
12604;DHT22;6367;52.508;13.284;2022-11-15T21:28:57;10.10;99.90
12604;DHT22;6367;52.508;13.284;2022-11-15T21:31:23;10.20;99.90
12604;DHT22;6367;52.508;13.284;2022-11-15T21:33:48;10.10;99.90
12604;DHT22;6367;52.508;13.284;2022-11-15T21:36:14;10.20;99.90
12604;DHT22;6367;52.508;13.284;2022-11-15T21:38:40;10.20;99.90
12604;DHT22;6367;52.508;13.284;2022-11-15T21:41:06;10.20;99.90
12604;DHT22;6367;52.508;13.284;2022-11-15T21:43:31;10.30;99.90
12604;DHT22;6367;52.508;13.284;2022-11-15T21:45:58;10.30;99.90
12604;DHT22;6367;52.508;13.284;2022-11-15T21:48:25;10.30;99.90
12604;DHT22;6367;52.508;13.284;2022-11-15T21:50:58;10.30;99.90
12604;DHT22;6367;52.508;13.284;2022-11-15T21:53:25;10.30;99.90
12604;DHT22;6367;52.508;13.284;2022-11-15T21:55:50;10.30;99.90
12604;DHT22;6367;52.508;13.284;2022-11-15T21:58:16;10.30;99.90
12604;DHT22;6367;52.508;13.284;2022-11-15T22:00:43;10.30;99.90
12604;DHT22;6367;52.508;13.284;2022-11-15T22:03:27;10.20;99.90
12604;DHT22;6367;52.508;13.284;2022-11-15T22:05:53;10.30;99.90
12604;DHT22;6367;52.508;13.284;2022-11-15T22:08:19;10.20;99.90
12604;DHT22;6367;52.508;13.284;2022-11-15T22:10:46;10.50;99.90
12604;DHT22;6367;52.508;13.284;2022-11-15T22:13:12;10.30;99.90
12604;DHT22;6367;52.508;13.284;2022-11-15T22:15:38;10.20;99.90
12604;DHT22;6367;52.508;13.284;2022-11-15T22:18:03;10.30;99.90
12604;DHT22;6367;52.508;13.284;2022-11-15T22:20:29;10.30;99.90
12604;DHT22;6367;52.508;13.284;2022-11-15T22:22:56;10.30;99.90
12604;DHT22;6367;52.508;13.284;2022-11-15T22:25:23;10.30;99.90
12604;DHT22;6367;52.508;13.284;2022-11-15T22:27:49;10.20;99.90
12604;DHT22;6367;52.508;13.284;2022-11-15T22:30:14;10.20;99.90
12604;DHT22;6367;52.508;13.284;2022-11-15T22:32:40;10.00;99.90
12604;DHT22;6367;52.508;13.284;2022-11-15T22:35:06;10.20;99.90
12604;DHT22;6367;52.508;13.284;2022-11-15T22:38:14;10.10;99.90
12604;DHT22;6367;52.508;13.284;2022-11-15T22:40:40;10.10;99.90
12604;DHT22;6367;52.508;13.284;2022-11-15T22:43:06;10.30;99.90
12604;DHT22;6367;52.508;13.284;2022-11-15T22:45:32;10.20;99.90
12604;DHT22;6367;52.508;13.284;2022-11-15T22:47:58;10.10;99.90
12604;DHT22;6367;52.508;13.284;2022-11-15T22:50:24;10.10;99.90
12604;DHT22;6367;52.508;13.284;2022-11-15T22:52:50;10.00;99.90
12604;DHT22;6367;52.508;13.284;2022-11-15T22:55:16;9.90;99.90
12604;DHT22;6367;52.508;13.284;2022-11-15T22:57:42;9.90;99.90
12604;DHT22;6367;52.508;13.284;2022-11-15T23:00:13;10.10;99.90
12604;DHT22;6367;52.508;13.284;2022-11-15T23:02:40;9.60;99.90
12604;DHT22;6367;52.508;13.284;2022-11-15T23:05:06;9.50;99.90
12604;DHT22;6367;52.508;13.284;2022-11-15T23:07:32;9.60;99.90
12604;DHT22;6367;52.508;13.284;2022-11-15T23:10:01;9.50;99.90
12604;DHT22;6367;52.508;13.284;2022-11-15T23:13:02;9.40;99.90
12604;DHT22;6367;52.508;13.284;2022-11-15T23:15:48;9.30;99.90
12604;DHT22;6367;52.508;13.284;2022-11-15T23:18:38;9.30;99.90
12604;DHT22;6367;52.508;13.284;2022-11-15T23:21:31;9.50;99.90
12604;DHT22;6367;52.508;13.284;2022-11-15T23:24:15;9.50;99.90
12604;DHT22;6367;52.508;13.284;2022-11-15T23:26:42;9.60;99.90
12604;DHT22;6367;52.508;13.284;2022-11-15T23:29:10;9.50;99.90
12604;DHT22;6367;52.508;13.284;2022-11-15T23:31:36;9.70;99.90
12604;DHT22;6367;52.508;13.284;2022-11-15T23:34:20;9.70;99.90
12604;DHT22;6367;52.508;13.284;2022-11-15T23:36:46;9.80;99.90
12604;DHT22;6367;52.508;13.284;2022-11-15T23:39:14;9.90;99.90
12604;DHT22;6367;52.508;13.284;2022-11-15T23:41:40;9.80;99.90
12604;DHT22;6367;52.508;13.284;2022-11-15T23:44:06;9.70;99.90
12604;DHT22;6367;52.508;13.284;2022-11-15T23:46:32;9.60;99.90
12604;DHT22;6367;52.508;13.284;2022-11-15T23:48:58;9.50;99.90
12604;DHT22;6367;52.508;13.284;2022-11-15T23:51:26;9.50;99.90
12604;DHT22;6367;52.508;13.284;2022-11-15T23:53:52;9.40;99.90
12604;DHT22;6367;52.508;13.284;2022-11-15T23:56:19;9.30;99.90
12604;DHT22;6367;52.508;13.284;2022-11-15T23:58:45;9.20;99.90
